createdAt,value
2023-03-03T00:00:45.431Z,0.40
2023-03-03T00:01:46.964Z,0.50
2023-03-03T00:02:48.983Z,0.40
2023-03-03T00:03:50.465Z,0.40
2023-03-03T00:04:52.219Z,0.30
2023-03-03T00:05:54.439Z,0.30
2023-03-03T00:06:56.228Z,0.30
2023-03-03T00:07:57.823Z,0.30
2023-03-03T00:08:59.388Z,0.30
2023-03-03T00:10:00.960Z,0.30
2023-03-03T00:11:05.105Z,0.30
2023-03-03T00:12:25.691Z,0.40
2023-03-03T00:13:29.018Z,0.40
2023-03-03T00:14:32.604Z,0.40
2023-03-03T00:15:36.320Z,0.30
2023-03-03T00:16:39.087Z,0.30
2023-03-03T00:17:40.592Z,0.40
2023-03-03T00:18:46.941Z,0.30
2023-03-03T00:19:49.598Z,0.30
2023-03-03T00:20:56.539Z,0.30
2023-03-03T00:21:59.086Z,0.30
2023-03-03T00:23:24.233Z,0.30
2023-03-03T00:24:38.696Z,0.30
2023-03-03T00:25:45.015Z,0.40
2023-03-03T00:26:52.791Z,0.30
2023-03-03T00:27:54.558Z,0.30
2023-03-03T00:28:57.184Z,0.30
2023-03-03T00:30:00.958Z,0.40
2023-03-03T00:31:19.278Z,0.30
2023-03-03T00:32:21.230Z,0.30
2023-03-03T00:33:28.664Z,0.20
2023-03-03T00:34:31.342Z,0.30
2023-03-03T00:35:35.886Z,0.20
2023-03-03T00:36:39.140Z,0.20
2023-03-03T00:37:41.187Z,0.20
2023-03-03T00:38:43.501Z,0.20
2023-03-03T00:39:44.996Z,0.20
2023-03-03T00:40:47.981Z,0.20
2023-03-03T00:41:49.648Z,0.20
2023-03-03T00:42:57.709Z,0.10
2023-03-03T00:43:59.685Z,0.10
2023-03-03T00:45:01.193Z,0.10
2023-03-03T00:46:03.383Z,0.10
2023-03-03T00:47:38.424Z,0.00
2023-03-03T00:48:43.331Z,0.00
2023-03-03T00:49:45.656Z,0.00
2023-03-03T00:50:47.207Z,0.00
2023-03-03T00:51:49.331Z,0.00
2023-03-03T00:53:02.348Z,0.00
2023-03-03T00:54:04.293Z,0.00
2023-03-03T00:55:07.572Z,0.00
2023-03-03T00:56:09.112Z,0.10
2023-03-03T00:57:12.666Z,0.00
2023-03-03T00:58:15.839Z,0.00
2023-03-03T00:59:21.200Z,0.00
2023-03-03T01:00:22.689Z,0.00
2023-03-03T01:01:25.588Z,0.00
2023-03-03T01:02:29.482Z,0.00
2023-03-03T01:03:31.216Z,0.00
2023-03-03T01:04:32.868Z,0.00
2023-03-03T01:05:34.799Z,0.00
2023-03-03T01:06:36.257Z,0.00
2023-03-03T01:07:38.233Z,0.00
2023-03-03T01:08:39.755Z,0.00
2023-03-03T01:09:41.426Z,0.00
2023-03-03T01:10:48.596Z,0.10
2023-03-03T01:11:50.995Z,0.10
2023-03-03T01:12:52.838Z,0.10
2023-03-03T01:13:54.568Z,0.20
2023-03-03T01:14:56.806Z,0.20
2023-03-03T01:15:59.642Z,0.20
2023-03-03T01:17:01.249Z,0.30
2023-03-03T01:18:02.997Z,0.30
2023-03-03T01:19:04.750Z,0.40
2023-03-03T01:20:10.165Z,0.40
2023-03-03T01:21:12.519Z,0.30
2023-03-03T01:22:14.007Z,0.40
2023-03-03T01:23:15.464Z,0.40
2023-03-03T01:24:16.901Z,0.40
2023-03-03T01:25:18.340Z,0.30
2023-03-03T01:26:19.854Z,0.30
2023-03-03T01:27:21.385Z,0.30
2023-03-03T01:28:22.917Z,0.30
2023-03-03T01:29:24.551Z,0.40
2023-03-03T01:30:26.745Z,0.30
2023-03-03T01:31:28.565Z,0.30
2023-03-03T01:32:30.146Z,0.40
2023-03-03T01:33:34.167Z,0.40
2023-03-03T01:34:35.744Z,0.40
2023-03-03T01:35:37.676Z,0.30
2023-03-03T01:36:39.382Z,0.30
2023-03-03T01:37:40.929Z,0.30
2023-03-03T01:38:43.334Z,0.20
2023-03-03T01:39:49.767Z,0.30
2023-03-03T01:40:58.829Z,0.30
2023-03-03T01:42:00.658Z,0.30
2023-03-03T01:43:02.251Z,0.30
2023-03-03T01:44:04.333Z,0.30
2023-03-03T01:45:19.477Z,0.30
2023-03-03T01:46:39.409Z,0.30
2023-03-03T01:47:46.894Z,0.30
2023-03-03T01:48:49.653Z,0.30
2023-03-03T01:49:58.008Z,0.30
2023-03-03T01:51:30.907Z,0.30
2023-03-03T01:52:42.511Z,0.20
2023-03-03T01:53:52.670Z,0.20
2023-03-03T01:55:00.344Z,0.30
2023-03-03T01:56:02.994Z,0.20
2023-03-03T01:57:08.654Z,0.30
2023-03-03T01:58:15.795Z,0.20
2023-03-03T01:59:23.358Z,0.20
2023-03-03T02:00:25.560Z,0.20
2023-03-03T02:01:28.928Z,0.20
2023-03-03T02:02:34.864Z,0.30
2023-03-03T02:03:36.715Z,0.20
2023-03-03T02:04:38.579Z,0.20
2023-03-03T02:05:41.038Z,0.20
2023-03-03T02:06:47.739Z,0.20
2023-03-03T02:07:49.309Z,0.10
2023-03-03T02:09:20.424Z,0.10
2023-03-03T02:10:22.576Z,0.10
2023-03-03T02:11:24.156Z,0.20
2023-03-03T02:12:48.781Z,0.10
2023-03-03T02:13:50.237Z,0.00
2023-03-03T02:14:51.884Z,0.00
2023-03-03T02:15:53.415Z,-0.10
2023-03-03T02:16:55.184Z,-0.10
2023-03-03T02:18:02.607Z,0.00
2023-03-03T02:19:08.237Z,-0.10
2023-03-03T02:20:15.290Z,-0.10
2023-03-03T02:21:20.101Z,-0.10
2023-03-03T02:22:35.071Z,-0.10
2023-03-03T02:24:03.903Z,-0.10
2023-03-03T02:25:10.364Z,-0.10
2023-03-03T02:26:22.693Z,0.00
2023-03-03T02:27:31.724Z,0.00
2023-03-03T02:28:36.706Z,0.00
2023-03-03T02:29:41.046Z,0.00
2023-03-03T02:30:42.674Z,0.00
2023-03-03T02:31:44.470Z,0.00
2023-03-03T02:32:46.019Z,0.00
2023-03-03T02:33:50.753Z,0.00
2023-03-03T02:34:52.999Z,0.00
2023-03-03T02:35:54.866Z,0.00
2023-03-03T02:36:56.331Z,0.00
2023-03-03T02:38:04.636Z,-0.10
2023-03-03T02:39:14.967Z,-0.10
2023-03-03T02:40:18.256Z,0.00
2023-03-03T02:42:04.673Z,0.00
2023-03-03T02:43:12.692Z,0.00
2023-03-03T02:44:19.100Z,0.00
2023-03-03T02:45:20.663Z,0.00
2023-03-03T02:46:22.423Z,0.00
2023-03-03T02:47:23.921Z,0.00
2023-03-03T02:48:25.391Z,0.00
2023-03-03T02:49:30.926Z,0.00
2023-03-03T02:50:32.570Z,-0.10
2023-03-03T02:51:34.357Z,-0.10
2023-03-03T02:52:36.250Z,-0.10
2023-03-03T02:53:37.825Z,-0.10
2023-03-03T02:54:40.086Z,0.00
2023-03-03T02:55:42.128Z,-0.10
2023-03-03T02:56:44.304Z,-0.10
2023-03-03T02:57:45.779Z,-0.10
2023-03-03T02:58:47.663Z,0.00
2023-03-03T02:59:49.115Z,0.00
2023-03-03T03:00:52.688Z,0.00
2023-03-03T03:01:57.242Z,-0.10
2023-03-03T03:02:59.096Z,-0.10
2023-03-03T03:04:00.873Z,-0.20
2023-03-03T03:05:02.496Z,-0.20
2023-03-03T03:06:04.234Z,-0.20
2023-03-03T03:07:05.751Z,-0.10
2023-03-03T03:08:09.705Z,-0.10
2023-03-03T03:09:12.304Z,0.00
2023-03-03T03:10:13.837Z,-0.10
2023-03-03T03:11:16.655Z,0.00
2023-03-03T03:12:19.389Z,0.00
2023-03-03T03:13:23.876Z,0.00
2023-03-03T03:14:25.599Z,0.00
2023-03-03T03:15:28.999Z,0.00
2023-03-03T03:16:32.226Z,0.00
2023-03-03T03:17:34.071Z,0.00
2023-03-03T03:18:35.664Z,-0.10
2023-03-03T03:19:37.426Z,-0.10
2023-03-03T03:20:40.216Z,-0.10
2023-03-03T03:21:42.679Z,-0.20
2023-03-03T03:22:45.366Z,-0.20
2023-03-03T03:23:46.838Z,-0.20
2023-03-03T03:24:48.577Z,-0.20
2023-03-03T03:25:50.670Z,-0.20
2023-03-03T03:27:00.060Z,-0.20
2023-03-03T03:28:02.589Z,-0.20
2023-03-03T03:29:04.141Z,-0.20
2023-03-03T03:30:06.838Z,-0.30
2023-03-03T03:31:09.939Z,-0.20
2023-03-03T03:32:12.960Z,-0.20
2023-03-03T03:33:14.586Z,-0.20
2023-03-03T03:34:16.570Z,-0.20
2023-03-03T03:35:18.952Z,-0.20
2023-03-03T03:36:20.653Z,-0.20
2023-03-03T03:37:22.073Z,-0.10
2023-03-03T03:38:25.798Z,-0.10
2023-03-03T03:39:27.543Z,-0.10
2023-03-03T03:40:29.664Z,-0.10
2023-03-03T03:41:31.159Z,-0.20
2023-03-03T03:42:33.003Z,-0.20
2023-03-03T03:43:34.829Z,-0.20
2023-03-03T03:44:37.321Z,-0.10
2023-03-03T03:45:42.250Z,-0.10
2023-03-03T03:46:44.327Z,-0.10
2023-03-03T03:47:46.420Z,-0.10
2023-03-03T03:48:49.324Z,-0.10
2023-03-03T03:49:53.830Z,-0.10
2023-03-03T03:50:55.360Z,-0.10
2023-03-03T03:51:59.218Z,0.00
2023-03-03T03:53:04.357Z,0.00
2023-03-03T03:54:06.132Z,0.00
2023-03-03T03:55:10.502Z,0.10
2023-03-03T03:56:13.455Z,0.00
2023-03-03T03:57:15.983Z,0.00
2023-03-03T03:58:19.266Z,-0.10
2023-03-03T03:59:27.067Z,-0.10
2023-03-03T04:00:28.972Z,-0.20
2023-03-03T04:01:33.775Z,-0.20
2023-03-03T04:02:36.799Z,-0.20
2023-03-03T04:03:38.389Z,-0.20
2023-03-03T04:04:44.448Z,-0.30
2023-03-03T04:05:46.057Z,-0.30
2023-03-03T04:06:47.593Z,-0.20
2023-03-03T04:07:49.525Z,-0.20
2023-03-03T04:08:52.767Z,-0.20
2023-03-03T04:09:56.467Z,-0.30
2023-03-03T04:10:57.935Z,-0.20
2023-03-03T04:12:01.314Z,-0.20
2023-03-03T04:13:04.829Z,-0.30
2023-03-03T04:14:07.389Z,-0.20
2023-03-03T04:15:12.890Z,-0.20
2023-03-03T04:16:14.668Z,-0.20
2023-03-03T04:17:19.423Z,-0.20
2023-03-03T04:18:20.903Z,-0.20
2023-03-03T04:19:22.891Z,-0.10
2023-03-03T04:20:25.854Z,-0.10
2023-03-03T04:21:29.326Z,-0.10
2023-03-03T04:22:33.954Z,-0.10
2023-03-03T04:23:35.841Z,-0.10
2023-03-03T04:24:37.493Z,-0.10
2023-03-03T04:25:39.478Z,0.00
2023-03-03T04:26:48.088Z,0.00
2023-03-03T04:27:50.992Z,0.00
2023-03-03T04:28:53.979Z,0.10
2023-03-03T04:29:57.207Z,0.00
2023-03-03T04:30:59.262Z,0.00
2023-03-03T04:32:01.631Z,0.10
2023-03-03T04:33:03.967Z,0.10
2023-03-03T04:34:05.935Z,0.10
2023-03-03T04:35:09.020Z,0.10
2023-03-03T04:36:14.155Z,0.10
2023-03-03T04:37:15.796Z,0.10
2023-03-03T04:38:17.488Z,0.10
2023-03-03T04:39:20.631Z,0.10
2023-03-03T04:40:22.375Z,0.10
2023-03-03T04:41:25.351Z,0.10
2023-03-03T04:42:28.251Z,0.10
2023-03-03T04:43:30.127Z,0.10
2023-03-03T04:44:32.328Z,0.10
2023-03-03T04:45:34.117Z,0.10
2023-03-03T04:46:35.887Z,0.10
2023-03-03T04:47:38.737Z,0.10
2023-03-03T04:48:40.223Z,0.20
2023-03-03T04:49:41.756Z,0.20
2023-03-03T04:50:43.697Z,0.30
2023-03-03T04:51:45.156Z,0.20
2023-03-03T04:52:47.037Z,0.30
2023-03-03T04:53:48.751Z,0.30
2023-03-03T04:54:50.382Z,0.30
2023-03-03T04:55:53.509Z,0.30
2023-03-03T04:56:56.010Z,0.30
2023-03-03T04:57:57.554Z,0.30
2023-03-03T04:58:59.882Z,0.40
2023-03-03T05:00:02.145Z,0.40
2023-03-03T05:01:05.795Z,0.40
2023-03-03T05:02:08.861Z,0.40
2023-03-03T05:03:12.806Z,0.40
2023-03-03T05:04:15.836Z,0.40
2023-03-03T05:05:17.660Z,0.50
2023-03-03T05:06:19.339Z,0.50
2023-03-03T05:07:21.658Z,0.50
2023-03-03T05:08:23.462Z,0.50
2023-03-03T05:09:25.044Z,0.50
2023-03-03T05:10:26.592Z,0.40
2023-03-03T05:11:28.124Z,0.50
2023-03-03T05:12:29.586Z,0.50
2023-03-03T05:13:31.666Z,0.60
2023-03-03T05:14:33.473Z,0.70
2023-03-03T05:15:35.156Z,0.70
2023-03-03T05:16:36.559Z,0.70
2023-03-03T05:17:38.601Z,0.70
2023-03-03T05:18:40.096Z,0.70
2023-03-03T05:19:42.208Z,0.70
2023-03-03T05:20:43.736Z,0.80
2023-03-03T05:21:45.665Z,0.80
2023-03-03T05:22:47.214Z,0.90
2023-03-03T05:23:48.663Z,0.90
2023-03-03T05:24:50.338Z,0.90
2023-03-03T05:25:52.213Z,0.90
2023-03-03T05:26:53.968Z,0.90
2023-03-03T05:27:55.522Z,0.90
2023-03-03T05:28:56.943Z,0.90
2023-03-03T05:29:58.604Z,0.80
2023-03-03T05:31:00.438Z,0.80
2023-03-03T05:32:01.853Z,0.80
2023-03-03T05:33:04.777Z,0.80
2023-03-03T05:34:06.139Z,0.80
2023-03-03T05:35:07.746Z,0.90
2023-03-03T05:36:09.509Z,0.90
2023-03-03T05:37:11.049Z,0.90
2023-03-03T05:38:13.095Z,0.80
2023-03-03T05:39:14.576Z,0.80
2023-03-03T05:40:16.796Z,0.90
2023-03-03T05:41:18.531Z,0.90
2023-03-03T05:42:20.234Z,0.90
2023-03-03T05:43:22.370Z,0.80
2023-03-03T05:44:23.787Z,0.90
2023-03-03T05:45:25.368Z,0.80
2023-03-03T05:46:27.197Z,0.80
2023-03-03T05:47:29.481Z,0.80
2023-03-03T05:48:31.219Z,0.80
2023-03-03T05:49:32.774Z,0.80
2023-03-03T05:50:34.126Z,0.80
2023-03-03T05:51:35.544Z,0.90
2023-03-03T05:52:37.519Z,0.90
2023-03-03T05:53:39.942Z,1.00
2023-03-03T05:54:41.490Z,1.10
2023-03-03T05:55:43.004Z,1.10
2023-03-03T05:56:44.454Z,1.00
2023-03-03T05:57:46.164Z,1.00
2023-03-03T05:58:47.810Z,1.10
2023-03-03T05:59:49.292Z,1.10
2023-03-03T06:00:50.749Z,1.10
2023-03-03T06:01:52.300Z,1.00
2023-03-03T06:02:53.941Z,1.00
2023-03-03T06:03:55.508Z,1.00
2023-03-03T06:04:57.406Z,1.10
2023-03-03T06:05:59.149Z,1.10
2023-03-03T06:07:01.481Z,1.10
2023-03-03T06:08:03.071Z,1.10
2023-03-03T06:09:04.822Z,1.10
2023-03-03T06:10:07.151Z,1.10
2023-03-03T06:11:13.094Z,1.10
2023-03-03T06:12:14.801Z,1.10
2023-03-03T06:13:16.389Z,1.20
2023-03-03T06:14:17.792Z,1.30
2023-03-03T06:15:19.492Z,1.30
2023-03-03T06:16:21.314Z,1.40
2023-03-03T06:17:22.912Z,1.40
2023-03-03T06:18:24.611Z,1.40
2023-03-03T06:19:26.434Z,1.30
2023-03-03T06:20:27.948Z,1.40
2023-03-03T06:21:29.462Z,1.40
2023-03-03T06:22:30.951Z,1.40
2023-03-03T06:23:32.522Z,1.50
2023-03-03T06:24:34.672Z,1.50
2023-03-03T06:25:36.204Z,1.50
2023-03-03T06:26:37.812Z,1.50
2023-03-03T06:27:39.289Z,1.50
2023-03-03T06:28:40.953Z,1.50
2023-03-03T06:29:42.982Z,1.50
2023-03-03T06:30:44.474Z,1.60
2023-03-03T06:31:46.011Z,1.60
2023-03-03T06:32:47.864Z,1.70
2023-03-03T06:33:49.724Z,1.70
2023-03-03T06:34:51.220Z,1.70
2023-03-03T06:35:54.393Z,1.60
2023-03-03T06:36:56.964Z,1.60
2023-03-03T06:37:58.438Z,1.60
2023-03-03T06:39:01.016Z,1.70
2023-03-03T06:40:05.120Z,1.70
2023-03-03T06:41:08.433Z,1.70
2023-03-03T06:42:09.941Z,1.70
2023-03-03T06:43:11.779Z,1.80
2023-03-03T06:44:13.509Z,1.80
2023-03-03T06:45:15.245Z,1.90
2023-03-03T06:46:17.701Z,1.90
2023-03-03T06:47:19.150Z,1.90
2023-03-03T06:48:20.548Z,1.90
2023-03-03T06:49:22.155Z,1.90
2023-03-03T06:50:23.883Z,1.80
2023-03-03T06:51:31.568Z,1.80
2023-03-03T06:52:33.846Z,1.80
2023-03-03T06:53:35.285Z,1.80
2023-03-03T06:54:36.762Z,1.80
2023-03-03T06:55:38.901Z,1.90
2023-03-03T06:56:41.558Z,1.90
2023-03-03T06:57:42.952Z,1.90
2023-03-03T06:58:44.602Z,2.00
2023-03-03T06:59:49.229Z,2.00
2023-03-03T07:00:57.538Z,2.00
2023-03-03T07:01:59.039Z,2.10
2023-03-03T07:03:07.794Z,2.10
2023-03-03T07:04:33.923Z,2.20
2023-03-03T07:05:35.480Z,2.10
2023-03-03T07:06:37.560Z,2.10
2023-03-03T07:07:39.627Z,2.10
2023-03-03T07:08:41.601Z,2.20
2023-03-03T07:09:45.970Z,2.30
2023-03-03T07:10:48.490Z,2.30
2023-03-03T07:11:52.190Z,2.20
2023-03-03T07:12:56.840Z,2.20
2023-03-03T07:13:58.900Z,2.20
2023-03-03T07:15:12.179Z,2.20
2023-03-03T07:16:15.838Z,2.20
2023-03-03T07:17:19.879Z,2.20
2023-03-03T07:18:52.473Z,2.20
2023-03-03T07:19:54.138Z,2.30
2023-03-03T07:20:55.773Z,2.30
2023-03-03T07:21:58.398Z,2.40
2023-03-03T07:23:00.193Z,2.40
2023-03-03T07:24:14.160Z,2.40
2023-03-03T07:25:40.576Z,2.40
2023-03-03T07:26:42.120Z,2.40
2023-03-03T07:27:44.648Z,2.50
2023-03-03T07:29:00.161Z,2.50
2023-03-03T07:30:19.619Z,2.60
2023-03-03T07:31:36.586Z,2.60
2023-03-03T07:32:45.016Z,2.70
2023-03-03T07:33:47.019Z,2.70
2023-03-03T07:34:51.045Z,2.80
2023-03-03T07:35:55.649Z,2.80
2023-03-03T07:37:06.272Z,2.80
2023-03-03T07:38:34.646Z,2.90
2023-03-03T07:39:40.508Z,2.90
2023-03-03T07:40:55.285Z,3.00
2023-03-03T07:42:20.524Z,3.00
2023-03-03T07:43:32.094Z,3.00
2023-03-03T07:44:38.107Z,3.10
2023-03-03T07:45:40.601Z,3.10
2023-03-03T07:46:45.181Z,3.20
2023-03-03T07:47:46.955Z,3.20
2023-03-03T07:48:49.448Z,3.20
2023-03-03T07:49:53.600Z,3.30
2023-03-03T07:50:55.587Z,3.30
2023-03-03T07:51:58.074Z,3.40
2023-03-03T07:53:01.622Z,3.40
2023-03-03T07:54:28.511Z,3.50
2023-03-03T07:55:40.833Z,3.50
2023-03-03T07:56:42.375Z,3.60
2023-03-03T07:57:44.359Z,3.60
2023-03-03T07:58:45.747Z,3.70
2023-03-03T07:59:54.758Z,3.70
2023-03-03T08:01:28.843Z,3.80
2023-03-03T08:02:30.414Z,3.60
2023-03-03T08:03:36.270Z,3.60
2023-03-03T08:04:52.538Z,3.70
2023-03-03T08:05:54.210Z,3.70
2023-03-03T08:06:57.906Z,3.60
2023-03-03T08:08:17.800Z,3.60
2023-03-03T08:09:51.304Z,3.60
2023-03-03T08:10:55.484Z,3.50
2023-03-03T08:12:09.421Z,3.40
2023-03-03T08:13:20.925Z,3.40
2023-03-03T08:14:29.325Z,3.50
2023-03-03T08:15:37.624Z,3.60
2023-03-03T08:16:40.235Z,3.60
2023-03-03T08:17:44.159Z,3.60
2023-03-03T08:18:48.204Z,3.50
2023-03-03T08:19:51.282Z,3.60
2023-03-03T08:20:56.241Z,3.70
2023-03-03T08:22:09.551Z,3.70
2023-03-03T08:23:11.721Z,3.70
2023-03-03T08:24:13.275Z,3.70
2023-03-03T08:25:14.796Z,3.70
2023-03-03T08:26:17.125Z,3.70
2023-03-03T08:27:18.565Z,3.70
2023-03-03T08:28:20.759Z,3.70
2023-03-03T08:29:22.201Z,3.70
2023-03-03T08:30:23.672Z,3.70
2023-03-03T08:31:40.329Z,3.60
2023-03-03T08:32:42.810Z,3.50
2023-03-03T08:33:46.153Z,3.60
2023-03-03T08:34:47.747Z,3.50
2023-03-03T08:35:49.827Z,3.50
2023-03-03T08:36:51.284Z,3.60
2023-03-03T08:37:52.798Z,3.70
2023-03-03T08:38:54.259Z,3.60
2023-03-03T08:39:55.675Z,3.60
2023-03-03T08:40:57.120Z,3.60
2023-03-03T08:41:58.816Z,3.60
2023-03-03T08:43:00.447Z,3.60
2023-03-03T08:44:01.892Z,3.60
2023-03-03T08:45:04.909Z,3.70
2023-03-03T08:46:07.515Z,3.60
2023-03-03T08:47:09.373Z,3.60
2023-03-03T08:48:11.946Z,3.50
2023-03-03T08:49:13.562Z,3.60
2023-03-03T08:50:16.354Z,3.60
2023-03-03T08:51:17.918Z,3.60
2023-03-03T08:52:19.296Z,3.70
2023-03-03T08:53:22.047Z,3.80
2023-03-03T08:54:23.506Z,3.80
2023-03-03T08:55:25.197Z,3.70
2023-03-03T08:56:26.638Z,3.70
2023-03-03T08:57:28.224Z,3.60
2023-03-03T08:58:35.002Z,3.70
2023-03-03T08:59:39.029Z,3.70
2023-03-03T09:00:41.089Z,3.70
2023-03-03T09:01:44.720Z,3.80
2023-03-03T09:02:46.653Z,3.80
2023-03-03T09:03:48.234Z,3.80
2023-03-03T09:04:49.720Z,3.80
2023-03-03T09:05:51.484Z,3.90
2023-03-03T09:06:52.933Z,3.90
2023-03-03T09:07:56.066Z,4.00
2023-03-03T09:08:57.607Z,4.00
2023-03-03T09:09:59.425Z,4.10
2023-03-03T09:11:02.311Z,4.10
2023-03-03T09:12:18.045Z,4.00
2023-03-03T09:13:20.385Z,3.90
2023-03-03T09:14:21.912Z,4.00
2023-03-03T09:15:34.713Z,4.00
2023-03-03T09:16:40.541Z,3.90
2023-03-03T09:17:42.123Z,3.90
2023-03-03T09:18:44.398Z,4.10
2023-03-03T09:19:46.503Z,4.20
2023-03-03T09:20:57.461Z,4.30
2023-03-03T09:22:22.037Z,4.20
2023-03-03T09:23:33.729Z,4.30
2023-03-03T09:24:37.196Z,4.20
2023-03-03T09:25:40.740Z,4.20
2023-03-03T09:26:48.196Z,4.30
2023-03-03T09:27:52.888Z,4.30
2023-03-03T09:29:15.296Z,4.30
2023-03-03T09:30:36.188Z,4.30
2023-03-03T09:32:01.213Z,4.50
2023-03-03T09:33:17.251Z,4.60
2023-03-03T09:34:18.606Z,4.60
2023-03-03T09:35:36.912Z,4.50
2023-03-03T09:36:38.729Z,4.60
2023-03-03T09:37:41.429Z,4.60
2023-03-03T09:38:45.877Z,4.70
2023-03-03T09:39:53.121Z,4.70
2023-03-03T09:41:16.035Z,4.80
2023-03-03T09:42:29.215Z,4.90
2023-03-03T09:43:55.950Z,4.90
2023-03-03T09:45:17.934Z,4.90
2023-03-03T09:46:37.277Z,5.00
2023-03-03T09:47:56.791Z,5.10
2023-03-03T09:49:19.290Z,5.10
2023-03-03T09:50:42.641Z,5.20
2023-03-03T09:52:16.215Z,5.40
2023-03-03T09:53:40.418Z,5.20
2023-03-03T09:55:07.262Z,5.20
2023-03-03T09:56:35.910Z,5.30
2023-03-03T09:58:09.948Z,5.40
2023-03-03T09:59:26.949Z,5.40
2023-03-03T10:00:40.624Z,5.40
2023-03-03T10:02:09.705Z,5.30
2023-03-03T10:03:25.927Z,5.30
2023-03-03T10:05:00.677Z,5.40
2023-03-03T10:06:14.728Z,5.30
2023-03-03T10:08:00.738Z,5.40
2023-03-03T10:09:30.646Z,5.50
2023-03-03T10:10:53.422Z,5.40
2023-03-03T10:12:27.325Z,5.40
2023-03-03T10:13:55.417Z,5.60
2023-03-03T10:15:30.613Z,5.70
2023-03-03T10:16:56.553Z,5.80
2023-03-03T10:18:24.285Z,5.80
2023-03-03T10:19:39.570Z,5.80
2023-03-03T10:20:52.491Z,5.80
2023-03-03T10:22:16.608Z,5.80
2023-03-03T10:23:21.466Z,5.90
2023-03-03T10:24:42.766Z,5.90
2023-03-03T10:25:59.638Z,5.90
2023-03-03T10:27:20.024Z,5.90
2023-03-03T10:28:53.780Z,5.80
2023-03-03T10:30:07.721Z,5.90
2023-03-03T10:31:20.076Z,6.00
2023-03-03T10:32:31.725Z,5.90
2023-03-03T10:34:00.587Z,6.00
2023-03-03T10:35:26.038Z,6.00
2023-03-03T10:36:34.607Z,6.10
2023-03-03T10:37:50.005Z,5.90
2023-03-03T10:39:17.574Z,5.90
2023-03-03T10:41:04.242Z,6.00
2023-03-03T10:42:11.754Z,5.90
2023-03-03T10:43:31.232Z,5.90
2023-03-03T10:45:13.405Z,5.90
2023-03-03T10:46:27.015Z,6.10
2023-03-03T10:48:07.317Z,6.10
2023-03-03T10:49:23.139Z,6.10
2023-03-03T10:50:40.390Z,6.20
2023-03-03T10:52:01.081Z,6.30
2023-03-03T10:53:17.302Z,6.40
2023-03-03T10:54:37.185Z,6.50
2023-03-03T10:55:59.094Z,6.60
2023-03-03T10:57:26.738Z,6.60
2023-03-03T10:59:06.785Z,6.50
2023-03-03T11:00:36.162Z,6.70
2023-03-03T11:01:40.666Z,6.70
2023-03-03T11:03:00.647Z,6.70
2023-03-03T11:04:07.760Z,6.70
2023-03-03T11:05:53.227Z,6.70
2023-03-03T11:07:12.673Z,6.80
2023-03-03T11:08:16.949Z,6.80
2023-03-03T11:09:33.100Z,6.80
2023-03-03T11:10:52.870Z,6.70
2023-03-03T11:12:06.812Z,6.60
2023-03-03T11:13:29.161Z,6.60
2023-03-03T11:14:40.309Z,6.60
2023-03-03T11:15:52.612Z,6.80
2023-03-03T11:17:48.036Z,6.80
2023-03-03T11:19:02.234Z,6.90
2023-03-03T11:20:36.899Z,6.80
2023-03-03T11:21:50.115Z,6.80
2023-03-03T11:23:36.278Z,6.70
2023-03-03T11:24:46.815Z,6.80
2023-03-03T11:26:20.393Z,6.70
2023-03-03T11:27:47.506Z,6.60
2023-03-03T11:29:13.899Z,6.70
2023-03-03T11:30:43.844Z,6.60
2023-03-03T11:32:02.887Z,6.50
2023-03-03T11:33:08.510Z,6.40
2023-03-03T11:34:33.379Z,6.30
2023-03-03T11:35:43.672Z,6.40
2023-03-03T11:37:09.564Z,6.50
2023-03-03T11:38:40.873Z,6.50
2023-03-03T11:39:44.138Z,6.60
2023-03-03T11:40:54.093Z,6.70
2023-03-03T11:42:35.979Z,6.80
2023-03-03T11:43:52.711Z,6.80
2023-03-03T11:45:01.682Z,6.80
2023-03-03T11:46:14.999Z,6.90
2023-03-03T11:47:20.992Z,7.00
2023-03-03T11:48:34.752Z,7.10
2023-03-03T11:50:03.536Z,7.10
2023-03-03T11:51:27.393Z,7.10
2023-03-03T11:52:49.524Z,7.20
2023-03-03T11:54:15.733Z,7.10
2023-03-03T11:55:35.990Z,7.20
2023-03-03T11:56:43.509Z,7.10
2023-03-03T11:58:02.468Z,7.00
2023-03-03T11:59:42.423Z,7.10
2023-03-03T12:01:18.221Z,7.10
2023-03-03T12:02:44.163Z,7.10
2023-03-03T12:03:56.587Z,7.20
2023-03-03T12:05:14.040Z,7.00
2023-03-03T12:07:09.757Z,7.20
2023-03-03T12:08:21.093Z,7.40
2023-03-03T12:09:37.995Z,7.60
2023-03-03T12:11:07.051Z,7.70
2023-03-03T12:12:16.321Z,7.60
2023-03-03T12:13:26.952Z,7.50
2023-03-03T12:14:46.710Z,7.50
2023-03-03T12:16:13.698Z,7.40
2023-03-03T12:17:18.571Z,7.60
2023-03-03T12:18:36.115Z,7.50
2023-03-03T12:19:46.435Z,7.40
2023-03-03T12:21:13.321Z,7.20
2023-03-03T12:22:20.354Z,7.20
2023-03-03T12:23:46.760Z,7.30
2023-03-03T12:25:09.944Z,7.40
2023-03-03T12:26:37.511Z,7.20
2023-03-03T12:28:05.801Z,7.20
2023-03-03T12:29:13.024Z,7.20
2023-03-03T12:30:37.891Z,7.20
2023-03-03T12:31:53.540Z,7.30
2023-03-03T12:33:27.489Z,7.60
2023-03-03T12:34:51.579Z,7.70
2023-03-03T12:36:02.195Z,7.80
2023-03-03T12:37:33.439Z,7.90
2023-03-03T12:39:05.680Z,8.10
2023-03-03T12:40:18.773Z,7.90
2023-03-03T12:41:37.070Z,7.90
2023-03-03T12:42:48.638Z,7.70
2023-03-03T12:44:22.820Z,7.60
2023-03-03T12:46:00.746Z,7.60
2023-03-03T12:47:28.159Z,7.50
2023-03-03T12:48:44.096Z,7.70
2023-03-03T12:50:14.805Z,7.70
2023-03-03T12:51:42.710Z,7.60
2023-03-03T12:53:03.427Z,7.70
2023-03-03T12:54:16.662Z,7.70
2023-03-03T12:55:36.046Z,7.90
2023-03-03T12:56:50.088Z,8.10
2023-03-03T12:58:06.367Z,8.40
2023-03-03T12:59:35.939Z,8.40
2023-03-03T13:00:56.304Z,8.60
2023-03-03T13:02:15.610Z,8.50
2023-03-03T13:03:31.779Z,8.20
2023-03-03T13:05:02.629Z,8.10
2023-03-03T13:06:31.179Z,8.00
2023-03-03T13:07:47.371Z,8.10
2023-03-03T13:09:12.958Z,8.10
2023-03-03T13:10:23.364Z,8.00
2023-03-03T13:11:41.834Z,8.10
2023-03-03T13:13:00.734Z,8.10
2023-03-03T13:14:10.900Z,8.00
2023-03-03T13:15:33.320Z,7.80
2023-03-03T13:16:44.768Z,7.80
2023-03-03T13:18:24.770Z,7.80
2023-03-03T13:19:48.270Z,7.80
2023-03-03T13:21:00.049Z,7.80
2023-03-03T13:22:11.654Z,7.80
2023-03-03T13:23:54.994Z,7.90
2023-03-03T13:25:38.388Z,7.90
2023-03-03T13:27:04.621Z,7.90
2023-03-03T13:28:34.094Z,7.80
2023-03-03T13:29:42.803Z,8.10
2023-03-03T13:30:49.746Z,8.20
2023-03-03T13:32:05.692Z,8.20
2023-03-03T13:33:28.845Z,8.30
2023-03-03T13:35:14.587Z,8.30
2023-03-03T13:36:18.094Z,8.40
2023-03-03T13:37:29.782Z,8.40
2023-03-03T13:38:42.487Z,8.40
2023-03-03T13:40:11.307Z,8.40
2023-03-03T13:41:24.816Z,8.50
2023-03-03T13:42:49.409Z,8.60
2023-03-03T13:44:01.821Z,8.50
2023-03-03T13:45:16.671Z,8.60
2023-03-03T13:46:25.742Z,8.50
2023-03-03T13:47:40.197Z,8.50
2023-03-03T13:49:10.219Z,8.40
2023-03-03T13:50:40.775Z,8.50
2023-03-03T13:52:02.851Z,8.60
2023-03-03T13:53:22.115Z,8.80
2023-03-03T13:54:53.127Z,8.90
2023-03-03T13:56:24.294Z,8.80
2023-03-03T13:57:55.652Z,8.80
2023-03-03T13:59:24.265Z,8.80
2023-03-03T14:00:32.213Z,8.90
2023-03-03T14:02:21.309Z,8.70
2023-03-03T14:03:32.250Z,8.70
2023-03-03T14:04:54.399Z,8.70
2023-03-03T14:06:09.306Z,8.60
2023-03-03T14:07:27.732Z,8.60
2023-03-03T14:08:44.694Z,8.60
2023-03-03T14:09:59.477Z,8.70
2023-03-03T14:11:19.598Z,8.50
2023-03-03T14:12:27.989Z,8.50
2023-03-03T14:13:39.769Z,8.50
2023-03-03T14:14:52.058Z,8.50
2023-03-03T14:16:20.337Z,8.50
2023-03-03T14:17:35.077Z,8.40
2023-03-03T14:18:41.771Z,8.50
2023-03-03T14:19:53.182Z,8.50
2023-03-03T14:20:59.700Z,8.40
2023-03-03T14:22:30.053Z,8.40
2023-03-03T14:23:41.001Z,8.40
2023-03-03T14:25:20.911Z,8.40
2023-03-03T14:26:22.664Z,8.40
2023-03-03T14:27:34.744Z,8.30
2023-03-03T14:28:48.292Z,8.30
2023-03-03T14:29:49.746Z,8.20
2023-03-03T14:30:55.195Z,8.30
2023-03-03T14:31:59.559Z,8.40
2023-03-03T14:33:09.987Z,8.50
2023-03-03T14:34:23.365Z,8.40
2023-03-03T14:35:26.711Z,8.50
2023-03-03T14:36:32.606Z,8.50
2023-03-03T14:37:45.287Z,8.40
2023-03-03T14:38:48.607Z,8.30
2023-03-03T14:40:16.997Z,8.30
2023-03-03T14:41:21.753Z,8.30
2023-03-03T14:42:38.188Z,8.30
2023-03-03T14:43:43.007Z,8.30
2023-03-03T14:44:47.450Z,8.40
2023-03-03T14:45:49.002Z,8.30
2023-03-03T14:47:27.005Z,8.20
2023-03-03T14:48:31.085Z,8.20
2023-03-03T14:49:37.682Z,8.10
2023-03-03T14:50:41.804Z,7.90
2023-03-03T14:51:48.299Z,7.80
2023-03-03T14:53:07.490Z,7.80
2023-03-03T14:54:35.653Z,7.80
2023-03-03T14:55:40.655Z,7.80
2023-03-03T14:56:57.740Z,7.80
2023-03-03T14:58:00.541Z,7.80
2023-03-03T14:59:18.897Z,7.80
2023-03-03T15:00:23.468Z,7.80
2023-03-03T15:01:35.741Z,7.70
2023-03-03T15:02:44.468Z,7.70
2023-03-03T15:03:58.689Z,7.80
2023-03-03T15:05:24.559Z,7.80
2023-03-03T15:06:41.671Z,7.80
2023-03-03T15:07:44.288Z,7.80
2023-03-03T15:08:45.886Z,7.80
2023-03-03T15:09:50.865Z,7.70
2023-03-03T15:10:52.474Z,7.70
2023-03-03T15:11:56.208Z,7.70
2023-03-03T15:12:58.262Z,7.70
2023-03-03T15:14:17.537Z,7.70
2023-03-03T15:15:21.580Z,7.80
2023-03-03T15:16:30.476Z,7.80
2023-03-03T15:17:38.076Z,7.80